X  Κλείσε Στοιχεία αεροπορικών μετεωρολογικών δεδομένων METAR     EHRD Rotterdam The Hague Airport
θερμοκρασία
1°C θερμοκρασία
0°C Σημείο δρόσου
93% Υγρασία



Ανεμος
11 KM/H
7 MPH
3 M/S
6 KTS



40°
VA
Τρέχουσες συνθήκες

Μερικώς συννεφιασμένος Μερικώς συννεφιασμένος
πίεση 998.92 (hPa) - 29.5 (inHg)
Ορατότητα 6.2 (μίλι) - 10 (km)
Aεροδρόμιο
Κωδικός αεροδρομίου EHRD

Τοποθεσία: Rotterdam The Hague Airport
Απόσταση: 16 (km)

Metar:
EHRD 250325Z AUTO 04006KT 9999 FEW007 BKN008 FEW015CB 01/00 Q0999 TEMPO 4000

ώρα: 25-01-2021 04:25 CET